Time;durP1;ratioP1;P1;durP2;ratioP2;P2;SDS_P1;SDS_P2;PMS_P1;PMS_P2;Temp;Humidity;BMP_temperature;BMP_pressure;BME280_temperature;BME280_humidity;BME280_pressure;Samples;Min_cycle;Max_cycle;Signal;HPM_P1;HPM_P2
2020/12/19 00:02:15;;;;;;;10.17;8.53;;;4.60;99.90;;;;;;4958384;29;20458;-81
2020/12/19 00:04:43;;;;;;;8.83;8.03;;;4.60;99.90;;;;;;4957895;29;20990;-82
2020/12/19 00:07:10;;;;;;;10.20;9.30;;;4.60;99.90;;;;;;4958015;29;20471;-81
2020/12/19 00:09:38;;;;;;;8.90;8.00;;;4.50;99.90;;;;;;4957824;28;20490;-81
2020/12/19 00:12:06;;;;;;;9.50;8.53;;;4.50;99.90;;;;;;4957682;29;20635;-81
2020/12/19 00:14:33;;;;;;;10.10;9.03;;;4.50;99.90;;;;;;4957877;29;20545;-81
2020/12/19 00:17:00;;;;;;;11.80;9.87;;;4.50;99.90;;;;;;4957833;29;20538;-80
2020/12/19 00:19:27;;;;;;;9.90;8.90;;;4.40;99.90;;;;;;4957586;29;20457;-80
2020/12/19 00:21:55;;;;;;;8.37;7.57;;;4.40;99.90;;;;;;4957849;29;20533;-80
2020/12/19 00:24:22;;;;;;;9.87;8.97;;;4.40;99.90;;;;;;4957639;29;21019;-82
2020/12/19 00:26:50;;;;;;;9.17;8.27;;;4.40;99.90;;;;;;4957992;29;20482;-80
2020/12/19 00:29:17;;;;;;;14.27;9.07;;;4.30;99.90;;;;;;4957705;29;20533;-81
2020/12/19 00:31:44;;;;;;;9.63;8.70;;;4.30;99.90;;;;;;4957664;29;20542;-81
2020/12/19 00:34:12;;;;;;;9.23;8.33;;;4.30;99.90;;;;;;4957515;29;20478;-81
2020/12/19 00:36:39;;;;;;;9.67;8.67;;;4.20;99.90;;;;;;4957605;29;20553;-81
2020/12/19 00:39:07;;;;;;;9.83;8.80;;;4.20;99.90;;;;;;4957639;29;20878;-81
2020/12/19 00:41:34;;;;;;;9.60;8.67;;;4.20;99.90;;;;;;4957516;29;20489;-81
2020/12/19 00:44:02;;;;;;;10.83;8.97;;;4.10;99.90;;;;;;4959029;28;20485;-81
2020/12/19 00:46:29;;;;;;;11.43;10.20;;;4.10;99.90;;;;;;4957168;29;20479;-81
2020/12/19 00:48:57;;;;;;;11.93;10.43;;;4.10;99.90;;;;;;4957388;29;20469;-81
2020/12/19 00:51:24;;;;;;;13.10;10.30;;;4.10;99.90;;;;;;4957539;29;20474;-80
2020/12/19 00:53:51;;;;;;;11.37;10.10;;;4.00;99.90;;;;;;4957260;29;20521;-81
2020/12/19 00:56:21;;;;;;;13.27;10.70;;;4.10;99.90;;;;;;4956801;28;20447;-80
2020/12/19 00:58:50;;;;;;;12.40;10.30;;;4.00;99.90;;;;;;4957108;29;20490;-80
2020/12/19 01:01:20;;;;;;;12.10;10.40;;;4.00;99.90;;;;;;4958292;28;20497;-81
2020/12/19 01:03:48;;;;;;;11.40;9.60;;;4.00;99.90;;;;;;4957132;29;20474;-80
2020/12/19 01:06:17;;;;;;;12.37;10.97;;;3.90;99.90;;;;;;4956784;29;20877;-80
2020/12/19 01:08:45;;;;;;;11.20;9.80;;;3.90;99.90;;;;;;4957124;29;20514;-80
2020/12/19 01:11:30;;;;;;;12.60;10.57;;;3.90;99.90;;;;;;4958541;28;20466;-80
2020/12/19 01:13:58;;;;;;;11.65;10.65;;;3.90;99.90;;;;;;4958119;28;20478;-80
2020/12/19 01:16:28;;;;;;;12.07;10.87;;;3.90;99.90;;;;;;4957084;29;20199;-80
2020/12/19 01:18:58;;;;;;;11.93;9.63;;;3.80;99.90;;;;;;4956673;29;20891;-81
2020/12/19 01:21:26;;;;;;;11.70;10.50;;;3.80;99.90;;;;;;4956676;29;20474;-81
2020/12/19 01:23:54;;;;;;;14.15;12.75;;;3.80;99.90;;;;;;4955881;29;20491;-81
2020/12/19 01:26:23;;;;;;;13.90;12.50;;;3.90;99.90;;;;;;4956915;29;20225;-81
2020/12/19 01:28:50;;;;;;;13.97;12.47;;;3.90;99.90;;;;;;4956565;29;20558;-81
2020/12/19 01:31:20;;;;;;;15.30;12.70;;;3.80;99.90;;;;;;4956912;28;20480;-81
2020/12/19 01:33:48;;;;;;;13.30;11.47;;;3.80;99.90;;;;;;4956797;29;20553;-81
2020/12/19 01:36:18;;;;;;;14.77;12.33;;;3.70;99.90;;;;;;4956797;29;20458;-80
2020/12/19 01:38:45;;;;;;;11.00;9.87;;;3.70;99.90;;;;;;4956982;29;20959;-80
2020/12/19 01:41:13;;;;;;;13.40;11.43;;;3.60;99.90;;;;;;4956338;29;20525;-81
2020/12/19 01:43:49;;;;;;;12.77;11.10;;;3.60;99.90;;;;;;4956920;29;20510;-81
2020/12/19 01:46:41;;;;;;;12.90;11.60;;;3.50;99.90;;;;;;4957025;28;20484;-81
2020/12/19 01:49:10;;;;;;;11.57;10.37;;;3.50;99.90;;;;;;4958438;28;20480;-81
2020/12/19 01:51:38;;;;;;;14.27;12.07;;;3.50;99.90;;;;;;4957046;29;20470;-80
2020/12/19 01:54:07;;;;;;;11.77;10.10;;;3.50;99.90;;;;;;4957142;28;20480;-81
2020/12/19 01:56:51;;;;;;;14.40;12.90;;;3.50;99.90;;;;;;4958320;28;20446;-81
2020/12/19 01:59:19;;;;;;;14.57;12.50;;;3.40;99.90;;;;;;4960305;29;20435;-81
2020/12/19 02:01:49;;;;;;;14.77;13.27;;;3.40;99.90;;;;;;4956107;28;20505;-81
2020/12/19 02:04:17;;;;;;;15.20;13.13;;;3.40;99.90;;;;;;4954511;29;20482;-81
2020/12/19 02:06:48;;;;;;;16.20;13.37;;;3.40;99.90;;;;;;4953984;28;20584;-80
2020/12/19 02:09:17;;;;;;;18.07;14.60;;;3.40;99.90;;;;;;4958292;28;20467;-80
2020/12/19 02:11:46;;;;;;;16.90;14.63;;;3.30;99.90;;;;;;4958559;29;20528;-82
2020/12/19 02:14:15;;;;;;;16.30;13.00;;;3.30;99.90;;;;;;4960054;29;20497;-81
2020/12/19 02:16:57;;;;;;;17.00;15.17;;;3.30;99.90;;;;;;4960247;29;20488;-80
2020/12/19 02:19:25;;;;;;;20.00;15.43;;;3.30;99.90;;;;;;4959776;29;20494;-81
2020/12/19 02:25:08;;;;;;;15.97;14.00;;;3.30;99.90;;;;;;669210;23;22141;-81
2020/12/19 02:27:36;;;;;;;18.07;16.00;;;3.30;99.90;;;;;;4958180;29;20478;-81
2020/12/19 02:30:04;;;;;;;20.47;18.27;;;3.20;99.90;;;;;;4960264;28;20864;-81
2020/12/19 02:32:31;;;;;;;20.30;18.10;;;3.20;99.90;;;;;;4961456;28;20469;-81
2020/12/19 02:34:58;;;;;;;22.00;15.40;;;3.20;99.90;;;;;;4948367;29;20510;-81
2020/12/19 02:37:25;;;;;;;18.50;16.50;;;3.20;99.90;;;;;;4940440;29;20547;-81
2020/12/19 02:39:52;;;;;;;20.23;17.17;;;3.20;99.90;;;;;;4940878;29;20479;-81
2020/12/19 02:42:21;;;;;;;21.43;17.23;;;3.20;99.90;;;;;;4942081;29;20439;-81
2020/12/19 02:44:48;;;;;;;22.77;19.47;;;3.20;99.90;;;;;;4942634;29;20494;-81
2020/12/19 02:47:15;;;;;;;21.87;16.27;;;3.20;99.90;;;;;;4941011;29;20471;-81
2020/12/19 02:49:42;;;;;;;22.30;18.40;;;3.20;99.90;;;;;;4940691;29;20510;-81
2020/12/19 02:52:09;;;;;;;20.20;16.50;;;3.20;99.90;;;;;;4940313;29;20503;-81
2020/12/19 02:54:37;;;;;;;22.93;17.40;;;3.20;99.90;;;;;;4940708;29;20570;-81
2020/12/19 02:57:05;;;;;;;21.80;18.63;;;3.20;99.90;;;;;;4940500;29;20491;-81
2020/12/19 02:59:33;;;;;;;20.00;17.67;;;3.20;99.90;;;;;;4940409;29;20542;-81
2020/12/19 03:02:00;;;;;;;21.97;18.93;;;3.20;99.90;;;;;;4940449;29;20561;-81
2020/12/19 03:04:27;;;;;;;23.33;20.27;;;3.10;99.90;;;;;;4940356;29;21002;-80
2020/12/19 03:06:54;;;;;;;20.63;18.37;;;3.10;99.90;;;;;;4940424;29;20546;-81
2020/12/19 03:09:21;;;;;;;23.70;17.13;;;3.10;99.90;;;;;;4940441;29;20486;-81
2020/12/19 03:11:48;;;;;;;25.50;19.93;;;3.10;99.90;;;;;;4939971;29;20821;-81
2020/12/19 03:14:18;;;;;;;20.80;16.50;;;3.10;99.90;;;;;;4940007;29;20843;-81
2020/12/19 03:16:46;;;;;;;21.90;18.00;;;3.10;99.90;;;;;;4939720;29;21015;-81
2020/12/19 03:19:13;;;;;;;24.70;22.03;;;3.10;99.90;;;;;;4940225;29;20213;-81
2020/12/19 03:21:40;;;;;;;23.33;19.77;;;3.10;99.90;;;;;;4941397;29;20447;-81
2020/12/19 03:24:07;;;;;;;21.17;17.97;;;3.10;99.90;;;;;;4941223;29;20452;-81
2020/12/19 03:26:34;;;;;;;22.37;18.33;;;3.10;99.90;;;;;;4939883;29;20515;-81
2020/12/19 03:29:02;;;;;;;22.97;18.17;;;3.00;99.90;;;;;;4939574;29;20465;-80
2020/12/19 03:31:29;;;;;;;26.30;20.17;;;3.00;99.90;;;;;;4939869;29;20538;-81
2020/12/19 03:33:57;;;;;;;28.07;20.90;;;3.00;99.90;;;;;;4939397;29;20515;-80
2020/12/19 03:36:41;;;;;;;23.57;20.40;;;3.00;99.90;;;;;;4940099;29;20445;-81
2020/12/19 03:39:09;;;;;;;25.40;18.50;;;3.00;99.90;;;;;;4940197;29;20456;-81
2020/12/19 03:41:36;;;;;;;26.50;21.50;;;3.00;99.90;;;;;;4940923;29;20536;-81
2020/12/19 03:44:03;;;;;;;24.40;20.57;;;3.00;99.90;;;;;;4941173;29;21048;-81
2020/12/19 03:46:30;;;;;;;26.97;22.50;;;3.00;99.90;;;;;;4939376;29;20530;-80
2020/12/19 03:48:58;;;;;;;27.00;20.97;;;3.00;99.90;;;;;;4941163;29;20510;-81
2020/12/19 03:51:25;;;;;;;26.43;22.07;;;3.00;99.90;;;;;;4939618;29;20516;-80
2020/12/19 03:53:53;;;;;;;26.43;20.53;;;3.10;99.90;;;;;;4939233;29;20468;-81
2020/12/19 03:56:20;;;;;;;27.07;21.27;;;3.00;99.90;;;;;;4939318;29;20507;-81
2020/12/19 03:58:48;;;;;;;27.43;21.70;;;3.00;99.90;;;;;;4939617;29;20529;-81
2020/12/19 04:01:15;;;;;;;28.57;22.00;;;3.00;99.90;;;;;;4938990;29;20980;-80
2020/12/19 04:03:42;;;;;;;28.10;21.93;;;3.10;99.90;;;;;;4939583;29;20542;-81
2020/12/19 04:06:10;;;;;;;27.37;23.17;;;3.00;99.90;;;;;;4939420;29;20514;-81
2020/12/19 04:08:37;;;;;;;27.40;19.90;;;3.10;99.90;;;;;;4941247;29;20515;-80
2020/12/19 04:11:06;;;;;;;28.87;22.50;;;3.10;99.90;;;;;;4939606;29;20469;-81
2020/12/19 04:13:33;;;;;;;25.60;20.10;;;3.00;99.90;;;;;;4938866;29;20493;-81
2020/12/19 04:16:01;;;;;;;30.57;23.97;;;3.10;99.90;;;;;;4939412;29;20466;-80
2020/12/19 04:18:28;;;;;;;30.07;22.70;;;3.10;99.90;;;;;;4939111;29;20456;-81
2020/12/19 04:20:55;;;;;;;26.77;21.90;;;3.00;99.90;;;;;;4939261;29;20528;-80
2020/12/19 04:23:24;;;;;;;28.00;20.43;;;3.00;99.90;;;;;;4939702;29;20498;-81
2020/12/19 04:25:51;;;;;;;28.20;20.27;;;3.00;99.90;;;;;;4938096;29;20488;-81
2020/12/19 04:28:18;;;;;;;31.07;24.03;;;3.00;99.90;;;;;;4938245;29;21035;-80
2020/12/19 04:30:45;;;;;;;30.57;22.70;;;3.00;99.90;;;;;;4936437;29;20529;-80
2020/12/19 04:33:12;;;;;;;31.40;24.47;;;3.00;99.90;;;;;;4936012;29;20490;-80
2020/12/19 04:35:39;;;;;;;28.40;23.40;;;3.00;99.90;;;;;;4936046;29;20474;-80
2020/12/19 04:38:06;;;;;;;30.33;22.00;;;3.00;99.90;;;;;;4938700;29;20452;-80
2020/12/19 04:40:34;;;;;;;35.00;27.37;;;3.00;99.90;;;;;;4938669;29;20551;-81
2020/12/19 04:43:14;;;;;;;33.37;26.17;;;3.00;99.90;;;;;;4938715;29;20461;-81
2020/12/19 04:45:41;;;;;;;28.87;22.90;;;3.00;99.90;;;;;;4938168;29;20891;-81
2020/12/19 04:48:08;;;;;;;42.10;25.00;;;3.00;99.90;;;;;;4938114;29;20584;-80
2020/12/19 04:50:39;;;;;;;30.27;24.13;;;3.00;99.90;;;;;;4938078;29;20502;-81
2020/12/19 04:53:18;;;;;;;28.00;22.70;;;3.00;99.90;;;;;;4938681;29;21015;-80
2020/12/19 04:55:46;;;;;;;31.83;22.00;;;3.00;99.90;;;;;;4939843;29;20467;-81
2020/12/19 04:58:15;;;;;;;28.70;22.60;;;3.00;99.90;;;;;;4938214;29;20448;-80
2020/12/19 05:00:42;;;;;;;28.03;21.50;;;3.00;99.90;;;;;;4939829;29;20451;-80
2020/12/19 05:03:10;;;;;;;26.73;21.07;;;2.90;99.90;;;;;;4937915;29;20454;-80
2020/12/19 05:05:42;;;;;;;26.80;22.00;;;2.90;99.90;;;;;;4938360;29;20474;-81
2020/12/19 05:08:09;;;;;;;31.30;21.13;;;2.90;99.90;;;;;;4938301;29;20471;-81
2020/12/19 05:10:37;;;;;;;29.43;25.00;;;2.90;99.90;;;;;;4938060;29;21050;-80
2020/12/19 05:13:06;;;;;;;29.03;22.97;;;2.90;99.90;;;;;;4937891;29;21035;-81
2020/12/19 05:15:33;;;;;;;28.67;22.07;;;2.90;99.90;;;;;;4937855;29;20561;-80
2020/12/19 05:18:01;;;;;;;31.40;22.80;;;2.90;99.90;;;;;;4937946;29;20483;-80
2020/12/19 05:20:30;;;;;;;30.27;22.70;;;2.90;99.90;;;;;;4937734;29;20550;-80
2020/12/19 05:22:58;;;;;;;26.27;20.90;;;2.90;99.90;;;;;;4938473;29;20461;-80
2020/12/19 05:25:27;;;;;;;28.50;22.17;;;2.90;99.90;;;;;;4937702;29;21003;-80
2020/12/19 05:27:54;;;;;;;28.10;24.07;;;2.80;99.90;;;;;;4937559;29;20497;-80
2020/12/19 05:30:22;;;;;;;27.60;22.50;;;2.80;99.90;;;;;;4939323;29;20446;-80
2020/12/19 05:32:50;;;;;;;30.70;23.03;;;2.80;99.90;;;;;;4937935;29;20542;-80
2020/12/19 05:35:19;;;;;;;28.33;20.17;;;2.80;99.90;;;;;;4937573;29;20471;-80
2020/12/19 05:38:02;;;;;;;28.47;22.57;;;2.80;99.90;;;;;;4937882;29;20489;-81
2020/12/19 05:40:31;;;;;;;27.83;21.43;;;2.80;99.90;;;;;;4938302;29;20490;-80
2020/12/19 05:42:58;;;;;;;31.43;22.37;;;2.80;99.90;;;;;;4939628;29;20462;-80
2020/12/19 05:45:28;;;;;;;33.40;23.70;;;2.70;99.90;;;;;;4943197;29;20534;-79
2020/12/19 05:47:56;;;;;;;29.40;23.00;;;2.80;99.90;;;;;;4942898;29;20520;-80
2020/12/19 05:50:24;;;;;;;26.03;21.77;;;2.70;99.90;;;;;;4941298;29;20458;-80
2020/12/19 05:52:51;;;;;;;27.67;21.97;;;2.70;99.90;;;;;;4941367;29;20461;-80
2020/12/19 05:55:19;;;;;;;30.23;23.37;;;2.70;99.90;;;;;;4942663;29;20458;-80
2020/12/19 05:57:47;;;;;;;30.80;22.00;;;2.70;99.90;;;;;;4941887;29;20443;-81
2020/12/19 06:00:16;;;;;;;28.97;23.70;;;2.70;99.90;;;;;;4941386;29;20442;-80
2020/12/19 06:02:45;;;;;;;34.10;25.07;;;2.70;99.90;;;;;;4942873;29;21004;-80
2020/12/19 06:05:14;;;;;;;32.40;23.47;;;2.70;99.90;;;;;;4941061;29;20829;-80
2020/12/19 06:07:42;;;;;;;36.37;26.10;;;2.70;99.90;;;;;;4941582;29;20473;-80
2020/12/19 06:10:11;;;;;;;31.87;24.43;;;2.70;99.90;;;;;;4940781;29;20521;-80
2020/12/19 06:13:02;;;;;;;32.30;24.40;;;2.70;99.90;;;;;;4941058;29;20476;-80
2020/12/19 06:15:55;;;;;;;31.37;24.13;;;2.70;99.90;;;;;;4941390;29;20467;-80
2020/12/19 06:18:36;;;;;;;33.67;24.93;;;2.70;99.90;;;;;;4941117;29;20453;-80
2020/12/19 06:21:07;;;;;;;31.90;24.20;;;2.70;99.90;;;;;;4941319;29;20448;-80
2020/12/19 06:23:35;;;;;;;33.00;23.80;;;2.70;99.90;;;;;;4940975;29;20456;-80
2020/12/19 06:26:03;;;;;;;30.40;22.87;;;2.60;99.90;;;;;;4941002;29;20566;-80
2020/12/19 06:28:46;;;;;;;30.87;22.27;;;2.60;99.90;;;;;;4940923;29;20470;-81
2020/12/19 06:31:17;;;;;;;35.83;24.17;;;2.60;99.90;;;;;;4941043;29;20496;-80
2020/12/19 06:33:47;;;;;;;35.50;25.73;;;2.60;99.90;;;;;;4940436;29;20455;-80
2020/12/19 06:36:20;;;;;;;32.57;26.20;;;2.60;99.90;;;;;;4940844;29;20451;-80
2020/12/19 06:38:49;;;;;;;35.53;26.73;;;2.60;99.90;;;;;;4940927;29;20502;-80
2020/12/19 06:41:42;;;;;;;34.83;26.93;;;2.60;99.90;;;;;;4942222;29;20474;-80
2020/12/19 06:44:12;;;;;;;32.50;23.87;;;2.60;99.90;;;;;;4940250;29;20478;-80
2020/12/19 06:46:40;;;;;;;31.93;26.90;;;2.60;99.90;;;;;;4940183;29;20475;-80
2020/12/19 06:49:28;;;;;;;34.08;28.80;;;2.60;99.90;;;;;;4939414;29;20488;-80
2020/12/19 06:52:04;;;;;;;34.30;26.60;;;2.70;99.90;;;;;;4941033;29;20288;-80
2020/12/19 06:54:32;;;;;;;32.63;26.17;;;2.70;99.90;;;;;;4939075;29;20506;-80
2020/12/19 06:57:01;;;;;;;35.43;24.77;;;2.60;99.90;;;;;;4939726;29;20450;-80
2020/12/19 06:59:29;;;;;;;35.77;26.07;;;2.60;99.90;;;;;;4939378;29;20458;-80
2020/12/19 07:02:16;;;;;;;32.67;25.03;;;2.60;99.90;;;;;;4938989;29;20481;-80
2020/12/19 07:04:45;;;;;;;32.40;24.53;;;2.60;99.90;;;;;;4937645;29;20473;-84
2020/12/19 07:07:14;;;;;;;32.67;23.77;;;2.60;99.90;;;;;;4937576;29;20899;-80
2020/12/19 07:09:42;;;;;;;31.93;23.77;;;2.60;99.90;;;;;;4939811;29;20475;-80
2020/12/19 07:12:28;;;;;;;33.97;25.83;;;2.50;99.90;;;;;;4941009;29;20442;-80
2020/12/19 07:14:56;;;;;;;33.43;23.77;;;2.50;99.90;;;;;;4940704;29;21016;-80
2020/12/19 07:17:23;;;;;;;32.57;24.80;;;2.50;99.90;;;;;;4939397;29;20538;-80
2020/12/19 07:19:58;;;;;;;34.83;24.83;;;2.50;99.90;;;;;;4939581;29;20456;-80
2020/12/19 07:22:26;;;;;;;35.97;25.40;;;2.50;99.90;;;;;;4939413;29;20885;-80
2020/12/19 07:24:53;;;;;;;34.00;24.47;;;2.50;99.90;;;;;;4939577;29;20510;-80
2020/12/19 07:27:21;;;;;;;34.33;25.50;;;2.40;99.90;;;;;;4939199;29;20521;-80
2020/12/19 07:29:48;;;;;;;36.33;26.27;;;2.40;99.90;;;;;;4939119;29;20532;-80
2020/12/19 07:32:16;;;;;;;32.93;25.13;;;2.40;99.90;;;;;;4939214;29;20462;-80
2020/12/19 07:34:43;;;;;;;32.40;23.93;;;2.40;99.90;;;;;;4939202;29;20572;-80
2020/12/19 07:37:12;;;;;;;34.73;25.37;;;2.40;99.90;;;;;;4940357;29;20478;-81
2020/12/19 07:39:39;;;;;;;36.87;26.70;;;2.40;99.90;;;;;;4939813;29;20485;-80
2020/12/19 07:42:08;;;;;;;32.83;24.50;;;2.40;99.90;;;;;;4939934;29;20467;-81
2020/12/19 07:44:36;;;;;;;40.37;26.90;;;2.40;99.90;;;;;;4939527;29;20481;-80
2020/12/19 07:47:07;;;;;;;36.17;26.43;;;2.40;99.90;;;;;;4939522;29;20539;-81
2020/12/19 07:49:44;;;;;;;37.70;26.40;;;2.40;99.90;;;;;;4939403;29;20945;-81
2020/12/19 07:52:18;;;;;;;34.27;26.17;;;2.40;99.90;;;;;;4940614;29;20444;-81
2020/12/19 07:54:59;;;;;;;39.53;26.77;;;2.40;99.90;;;;;;4940246;29;20477;-81
2020/12/19 07:57:29;;;;;;;37.13;26.70;;;2.50;99.90;;;;;;4940675;29;20475;-81
2020/12/19 07:59:57;;;;;;;37.10;28.23;;;2.40;99.90;;;;;;4940539;29;20547;-81
2020/12/19 08:02:25;;;;;;;39.10;28.03;;;2.40;99.90;;;;;;4941334;29;20462;-81
2020/12/19 08:04:54;;;;;;;38.83;28.87;;;2.40;99.90;;;;;;4940676;29;20535;-81
2020/12/19 08:07:23;;;;;;;45.20;29.57;;;2.50;99.90;;;;;;4940242;29;20482;-81
2020/12/19 08:10:01;;;;;;;40.90;28.97;;;2.50;99.90;;;;;;4942900;29;21001;-81
2020/12/19 08:12:29;;;;;;;35.43;23.83;;;2.50;99.90;;;;;;4941716;29;20451;-81
2020/12/19 08:14:58;;;;;;;39.10;26.07;;;2.50;99.90;;;;;;4939841;29;20980;-80
2020/12/19 08:17:27;;;;;;;39.43;29.03;;;2.50;99.90;;;;;;4936916;29;20542;-80
2020/12/19 08:19:57;;;;;;;44.30;29.93;;;2.50;99.90;;;;;;4936885;29;21064;-80
2020/12/19 08:22:27;;;;;;;46.37;29.73;;;2.50;99.90;;;;;;4936822;29;20466;-79
2020/12/19 08:25:00;;;;;;;39.50;28.83;;;2.50;99.90;;;;;;4937764;29;20828;-80
2020/12/19 08:27:43;;;;;;;39.50;27.70;;;2.60;99.90;;;;;;4936740;29;21071;-79
2020/12/19 08:30:14;;;;;;;44.03;30.60;;;2.60;99.90;;;;;;4936706;29;20485;-80
2020/12/19 08:32:43;;;;;;;44.37;31.30;;;2.60;99.90;;;;;;4939399;29;20913;-82
2020/12/19 08:35:17;;;;;;;46.17;30.90;;;2.70;99.90;;;;;;4939942;29;21038;-83
2020/12/19 08:37:46;;;;;;;42.40;29.40;;;2.70;99.90;;;;;;4940256;29;20916;-83
2020/12/19 08:40:16;;;;;;;41.13;29.93;;;2.70;99.90;;;;;;4939909;29;20489;-83
2020/12/19 08:42:45;;;;;;;45.20;33.20;;;2.70;99.90;;;;;;4939773;29;20463;-83
2020/12/19 08:45:25;;;;;;;47.30;31.97;;;2.80;99.90;;;;;;4939365;29;20499;-83
2020/12/19 08:47:54;;;;;;;44.10;31.00;;;2.80;99.90;;;;;;4939863;29;20467;-83
2020/12/19 08:50:33;;;;;;;43.40;31.87;;;2.80;99.90;;;;;;4940109;29;20458;-84
2020/12/19 08:53:07;;;;;;;44.70;32.63;;;2.90;99.90;;;;;;4939201;29;20434;-84
2020/12/19 08:55:35;;;;;;;44.10;31.27;;;2.90;99.90;;;;;;4939071;29;20479;-84
2020/12/19 08:58:02;;;;;;;48.10;32.83;;;3.00;99.90;;;;;;4941656;29;20465;-84
2020/12/19 09:00:34;;;;;;;47.80;33.07;;;3.00;99.90;;;;;;4941162;29;20454;-84
2020/12/19 09:03:09;;;;;;;45.10;31.67;;;3.00;99.90;;;;;;4938921;29;20443;-82
2020/12/19 09:05:42;;;;;;;53.60;36.28;;;3.10;99.90;;;;;;4938729;29;21018;-83
2020/12/19 09:08:12;;;;;;;52.10;35.77;;;3.10;99.90;;;;;;4940194;29;20666;-83
2020/12/19 09:10:41;;;;;;;51.37;36.30;;;3.20;99.90;;;;;;4940399;29;20782;-84
2020/12/19 17:22:11;;;;;;;14.97;13.67;;;8.50;99.90;;;;;;6287827;22;20473;-88
2020/12/19 17:24:38;;;;;;;13.60;12.20;;;8.50;99.90;;;;;;6258637;22;20447;-88
2020/12/19 17:27:07;;;;;;;14.73;13.27;;;8.60;99.90;;;;;;6257833;22;20478;-88
2020/12/19 17:29:34;;;;;;;14.48;13.18;;;8.60;99.90;;;;;;6269126;22;20507;-88
2020/12/19 17:32:02;;;;;;;14.47;13.03;;;8.60;99.90;;;;;;6282252;22;20571;-88
2020/12/19 17:34:32;;;;;;;15.37;13.80;;;8.70;99.90;;;;;;6279846;22;20421;-87
2020/12/19 17:37:00;;;;;;;13.87;12.57;;;8.70;99.90;;;;;;6280271;22;20885;-87
2020/12/19 17:39:28;;;;;;;14.63;13.23;;;8.60;99.90;;;;;;6280016;22;20448;-88
2020/12/19 17:41:57;;;;;;;14.70;13.20;;;8.70;99.90;;;;;;6280608;22;20162;-88
2020/12/19 17:44:25;;;;;;;14.10;12.77;;;8.70;99.90;;;;;;6281277;22;20405;-87
2020/12/19 17:46:52;;;;;;;14.13;12.73;;;8.70;99.90;;;;;;6282315;22;20415;-87
2020/12/19 17:49:20;;;;;;;13.70;12.30;;;8.80;99.90;;;;;;6282685;22;20777;-88
2020/12/19 17:51:47;;;;;;;14.37;12.97;;;8.70;99.90;;;;;;6282487;22;20436;-88
2020/12/19 17:54:14;;;;;;;15.90;14.30;;;8.70;99.90;;;;;;6282475;22;20779;-88
2020/12/19 17:56:42;;;;;;;15.23;13.83;;;8.70;99.90;;;;;;6281671;22;20474;-88
2020/12/19 17:59:09;;;;;;;15.10;13.70;;;8.70;99.90;;;;;;6293149;22;20503;-88
2020/12/19 18:01:37;;;;;;;15.47;13.97;;;8.70;99.90;;;;;;6282106;22;20443;-88
2020/12/19 18:04:04;;;;;;;15.10;13.70;;;8.70;99.90;;;;;;6282256;22;20495;-88
2020/12/19 18:06:31;;;;;;;15.40;13.80;;;8.70;99.90;;;;;;6294074;22;20403;-88
2020/12/19 18:08:59;;;;;;;13.80;12.50;;;8.70;99.90;;;;;;6281714;22;20736;-88
2020/12/19 18:11:26;;;;;;;12.60;11.40;;;8.70;99.90;;;;;;6280810;22;20933;-88
2020/12/19 18:13:54;;;;;;;11.47;10.50;;;8.80;99.90;;;;;;6281178;22;20500;-88
2020/12/19 18:16:21;;;;;;;11.57;10.47;;;8.70;99.90;;;;;;6292697;22;20385;-88
2020/12/19 18:18:48;;;;;;;12.40;11.20;;;8.80;99.90;;;;;;6281852;22;20435;-88
2020/12/19 18:21:15;;;;;;;11.43;10.23;;;8.80;99.90;;;;;;6281634;22;20417;-88
2020/12/19 18:23:43;;;;;;;11.00;10.00;;;8.80;99.90;;;;;;6281403;22;20416;-88
2020/12/19 18:26:10;;;;;;;12.13;10.97;;;8.90;99.90;;;;;;6281260;22;20428;-88
2020/12/19 18:28:38;;;;;;;10.57;9.57;;;8.90;99.90;;;;;;6281010;22;20967;-88
2020/12/19 18:31:06;;;;;;;9.80;8.90;;;8.90;99.90;;;;;;6281073;22;20527;-88
2020/12/19 18:33:33;;;;;;;11.30;10.10;;;9.00;99.90;;;;;;6281065;22;20417;-88
2020/12/19 18:36:01;;;;;;;10.43;9.43;;;9.00;99.90;;;;;;6280949;22;20466;-88
2020/12/19 18:38:28;;;;;;;9.83;8.93;;;9.00;99.90;;;;;;6280762;22;20412;-88
2020/12/19 18:40:55;;;;;;;9.70;8.70;;;9.10;99.90;;;;;;6280826;22;20870;-88
2020/12/19 18:43:22;;;;;;;10.40;9.43;;;9.10;99.90;;;;;;6281050;22;20957;-88
2020/12/19 18:45:50;;;;;;;10.70;9.70;;;9.10;99.90;;;;;;6281477;22;20510;-88
2020/12/19 18:48:18;;;;;;;10.63;9.50;;;9.10;99.90;;;;;;6280883;22;20951;-88
2020/12/19 18:50:46;;;;;;;10.87;9.73;;;9.20;99.90;;;;;;6281303;22;20440;-88
2020/12/19 18:53:13;;;;;;;10.17;9.17;;;9.20;99.90;;;;;;6281117;22;20420;-88
2020/12/19 18:55:40;;;;;;;11.93;10.03;;;9.20;99.90;;;;;;6280432;22;20435;-88
2020/12/19 18:58:07;;;;;;;9.93;8.93;;;9.20;99.90;;;;;;6280233;22;20503;-88
2020/12/19 19:00:34;;;;;;;10.23;9.33;;;9.20;99.90;;;;;;6280206;22;20440;-88
2020/12/19 19:03:02;;;;;;;10.80;9.70;;;9.30;99.90;;;;;;6280439;22;20413;-88
2020/12/19 19:05:31;;;;;;;10.33;9.40;;;9.30;99.90;;;;;;6279752;22;20412;-88
2020/12/19 19:07:58;;;;;;;9.77;8.87;;;9.30;99.90;;;;;;6280498;22;20451;-89
2020/12/19 19:10:25;;;;;;;10.10;9.10;;;9.30;99.90;;;;;;6279836;22;20463;-88
2020/12/19 19:12:54;;;;;;;10.47;9.57;;;9.30;99.90;;;;;;6279349;22;20436;-88
2020/12/19 19:15:21;;;;;;;10.43;9.00;;;9.30;99.90;;;;;;6283259;22;20389;-88
2020/12/19 19:17:49;;;;;;;10.60;9.50;;;9.30;99.90;;;;;;6283074;22;20728;-88
2020/12/19 19:20:16;;;;;;;11.50;10.00;;;9.40;99.90;;;;;;6280612;22;20441;-88
2020/12/19 19:22:44;;;;;;;11.60;9.90;;;9.40;99.90;;;;;;6281756;22;20458;-88
2020/12/19 19:25:12;;;;;;;11.40;10.20;;;9.40;99.90;;;;;;6280627;22;20417;-88
2020/12/19 19:27:39;;;;;;;11.65;10.45;;;9.40;99.90;;;;;;6279231;22;20502;-87
2020/12/19 19:30:08;;;;;;;11.50;10.10;;;9.50;99.90;;;;;;6278925;22;20190;-88
2020/12/19 19:32:37;;;;;;;10.70;9.70;;;9.50;99.90;;;;;;6278952;22;20428;-88
2020/12/19 19:35:04;;;;;;;14.60;11.77;;;9.40;99.90;;;;;;6281854;22;20419;-88
2020/12/19 19:37:32;;;;;;;13.23;11.50;;;9.40;99.90;;;;;;6296096;22;20423;-89
2020/12/19 19:40:00;;;;;;;11.23;10.23;;;9.40;99.90;;;;;;6281417;22;20443;-88
2020/12/19 19:42:27;;;;;;;11.43;10.23;;;9.40;99.90;;;;;;6280525;22;20444;-88
2020/12/19 19:44:55;;;;;;;9.87;8.93;;;9.40;99.90;;;;;;6280578;22;20397;-88
2020/12/19 19:47:22;;;;;;;11.80;10.60;;;9.40;99.90;;;;;;6281239;22;20409;-88
2020/12/19 19:49:50;;;;;;;10.37;9.43;;;9.40;99.90;;;;;;6282555;22;20424;-87
2020/12/19 19:52:17;;;;;;;10.83;9.77;;;9.40;99.90;;;;;;6283188;22;20440;-88
2020/12/19 19:54:44;;;;;;;10.57;9.57;;;9.40;99.90;;;;;;6282876;22;20488;-88
2020/12/19 19:57:12;;;;;;;11.47;10.37;;;9.40;99.90;;;;;;6283032;22;20420;-88
2020/12/19 19:59:40;;;;;;;11.77;10.73;;;9.40;99.90;;;;;;6281991;22;20428;-88
2020/12/19 20:02:07;;;;;;;12.67;11.07;;;9.40;99.90;;;;;;6282247;22;20498;-88
2020/12/19 20:04:34;;;;;;;14.17;11.70;;;9.40;99.90;;;;;;6282136;22;20447;-88
2020/12/19 20:07:02;;;;;;;11.17;10.07;;;9.30;99.90;;;;;;6282268;22;20447;-88
2020/12/19 20:09:29;;;;;;;11.93;10.80;;;9.30;99.90;;;;;;6281182;22;20481;-88
2020/12/19 20:11:57;;;;;;;11.40;10.30;;;9.30;99.90;;;;;;6282061;22;20443;-88
2020/12/19 20:14:26;;;;;;;12.30;11.03;;;9.40;99.90;;;;;;6282085;22;20420;-88
2020/12/19 20:16:54;;;;;;;15.40;13.13;;;9.30;99.90;;;;;;6281698;22;20432;-88
2020/12/19 20:19:21;;;;;;;12.33;11.13;;;9.30;99.90;;;;;;6282004;22;20444;-88
2020/12/19 20:21:49;;;;;;;11.27;10.17;;;9.30;99.90;;;;;;6281514;22;20935;-88
2020/12/19 20:24:28;;;;;;;11.10;10.20;;;9.30;99.90;;;;;;6281656;22;20810;-88
2020/12/19 20:26:55;;;;;;;12.93;11.73;;;9.30;99.90;;;;;;6281614;22;20925;-88
2020/12/19 20:29:23;;;;;;;14.20;12.90;;;9.30;99.90;;;;;;6281381;22;20923;-88
2020/12/19 20:31:55;;;;;;;12.90;11.60;;;9.30;99.90;;;;;;6281004;22;20439;-88
2020/12/19 20:34:23;;;;;;;12.43;11.23;;;9.30;99.90;;;;;;6280946;22;20412;-88
2020/12/19 20:36:50;;;;;;;12.00;10.80;;;9.30;99.90;;;;;;6292942;22;20407;-88
2020/12/19 20:39:18;;;;;;;12.80;11.50;;;9.30;99.90;;;;;;6281685;22;21003;-88
2020/12/19 20:41:45;;;;;;;13.13;11.93;;;9.30;99.90;;;;;;6281225;22;20440;-88
2020/12/19 20:44:12;;;;;;;17.03;15.43;;;9.30;99.90;;;;;;6281960;22;20470;-88
2020/12/19 20:46:53;;;;;;;15.40;13.93;;;9.30;99.90;;;;;;6281012;22;20863;-88
2020/12/19 20:49:21;;;;;;;15.47;14.03;;;9.30;99.90;;;;;;6284543;22;20435;-88
2020/12/19 20:51:49;;;;;;;13.90;12.60;;;9.30;99.90;;;;;;6281332;22;20432;-88
2020/12/19 20:54:17;;;;;;;14.00;12.70;;;9.30;99.90;;;;;;6281214;22;20416;-88
2020/12/19 20:56:44;;;;;;;13.03;11.77;;;9.30;99.90;;;;;;6281251;22;20427;-88
2020/12/19 20:59:12;;;;;;;13.10;11.90;;;9.30;99.90;;;;;;6281347;22;20443;-88
2020/12/19 21:01:40;;;;;;;14.93;12.87;;;9.30;99.90;;;;;;6281689;22;20415;-88